Lazy 5 Park, Sparks, Nevada Weather observations

Data are for 10 minute period ending at time listed.
 Day   Time   Solar   Ave.   Ave.  Ave.  Vector  Max.   Baro.   Total    
  of    of     Rad.   Air    Rel.  Wind   Wind   Wind  Press.  Precip.   
Year   Day            Temp.  Hum.  Speed  Dir.   Gust                    
2021   (PST)  Kw/m2    F      %     mph   deg.    mph    mb.     in.     
-------------------------------------------------------------------------
 124   14:50   0.77   77.0    12    7.9    13    16.4   99999.0    0.00 
 124   15:00   0.75   76.9    12    9.0    13    14.9   99999.0    0.00 
 124   15:10   0.73   76.9    12    7.4   357    17.1   99999.0    0.00 
 124   15:20   0.70   77.3    12   10.1   314    15.3   99999.0    0.00 
 124   15:30   0.54   77.2    12   11.7   346    18.9   99999.0    0.00 
 124   15:40   0.24   77.7    12   11.4   334    19.2   99999.0    0.00 
 124   15:50   0.61   77.7    12   11.2   307    18.9   99999.0    0.00 
 124   16:00   0.58   77.0    13   10.7   322    15.3   99999.0    0.00 
 124   16:10   0.55   77.3    13    8.6   284    14.9   99999.0    0.00 
 124   16:20   0.52   76.8    13   12.0   313    21.4   99999.0    0.00 
 124   16:30   0.49   76.6    13   11.2   333    18.1   99999.0    0.00 
 124   16:40   0.46   76.0    14   12.3   329    21.0   99999.0    0.00 
 124   16:50   0.42   75.9    14   10.7   329    15.6   99999.0    0.00 
 124   17:00   0.39   75.5    14   11.4   326    16.4   99999.0    0.00 
 124   17:10   0.36   75.1    15   12.0   333    19.6   99999.0    0.00 
 124   17:20   0.33   75.1    15   10.8   328    16.0   99999.0    0.00 
 124   17:30   0.29   74.7    15   10.4   339    14.9   99999.0    0.00 
 124   17:40   0.26   74.3    15   11.2   333    16.4   99999.0    0.00 
 124   17:50   0.22   73.9    16    9.9   334    14.6   99999.0    0.00 
 124   18:00   0.20   73.5    16    9.9   340    14.2   99999.0    0.00 
 124   18:10   0.10   73.1    16   10.2   326    13.9   99999.0    0.00 
 124   18:20   0.11   72.7    16    9.5   334    12.8   99999.0    0.00 
 124   18:30   0.05   72.2    16    9.9   327    13.1   99999.0    0.00 
 124   18:40   0.05   71.6    16    9.4   322    13.9   99999.0    0.00 
 124   18:50   0.05   70.7    17    6.7   324     8.9   99999.0    0.00 
 124   19:00   0.01   69.7    18    6.9   322     9.9   99999.0    0.00 
 124   19:10   0.01   68.8    18    6.6   314     8.5   99999.0    0.00 
 124   19:20   0.00   67.7    19    6.0   304     8.1   99999.0    0.00 
 124   19:30   0.00   67.3    18    7.0   294    11.0   99999.0    0.00 
 124   19:40   0.00   67.0    16    6.1   287     8.5   99999.0    0.00 
 124   19:50   0.00   66.7    17    5.4   287     7.4   99999.0    0.00 
 124   20:00   0.00   66.1    18    5.0   302     8.1   99999.0    0.00 
 124   20:10   0.00   65.6    20    3.2   312     4.6   99999.0    0.00 
 124   20:20   0.00   63.4    21    2.1   341     3.8   99999.0    0.00 
 124   20:30   0.00   62.0    22    0.7    20     3.8   99999.0    0.00 
 124   20:40   0.00   60.6    23    0.0   319     1.0   99999.0    0.00 
 124   20:50   0.00   60.2    24    1.6   118     4.2   99999.0    0.00 
 124   21:00   0.00   59.2    27    4.0   131     6.7   99999.0    0.00 
 124   21:10   0.00   59.3    31    5.3   137     9.6   99999.0    0.00 
 124   21:20   0.00   59.6    33    4.5   136     7.4   99999.0    0.00 
 124   21:30   0.00   60.5    32    4.1    88     8.1   99999.0    0.00 
 124   21:40   0.00   64.1    27    8.6   283    17.8   99999.0    0.00 
 124   21:50   0.00   64.7    27    5.4   348    15.6   99999.0    0.00 
 124   22:00   0.00   62.4    29    2.4   335     5.3   99999.0    0.00 
 124   22:10   0.00   61.0    30    1.2    28     4.6   99999.0    0.00 
 124   22:20   0.00   58.5    34    0.0    39     0.0   99999.0    0.00 
 124   22:30   0.00   57.0    34    0.0   312     0.0   99999.0    0.00 
 124   22:40   0.00   57.7    34    1.4   259     4.6   99999.0    0.00 
 124   22:50   0.00   58.8    33    4.0   274     6.7   99999.0    0.00 
 124   23:00   0.00   56.1    35    1.3    20     6.3   99999.0    0.00 
 124   23:10   0.00   56.0    36    2.3   305     3.5   99999.0    0.00 
 124   23:20   0.00   54.9    37    2.2   307     4.2   99999.0    0.00 
 124   23:30   0.00   51.0    40    2.0    71     4.2   99999.0    0.00 
 124   23:40   0.00   49.5    45    3.0    70     4.6   99999.0    0.00 
 124   23:50   0.00   49.8    45    0.7   297     2.1   99999.0    0.00 
 125    0:00   0.00   51.1    44    1.0   270     3.1   99999.0    0.00 
 125    0:10   0.00   51.7    41    1.3   318     4.9   99999.0    0.00 
 125    0:20   0.00   52.3    40    5.9   293     6.7   99999.0    0.00 
 125    0:30   0.00   53.7    38    5.9   286     7.1   99999.0    0.00 
 125    0:40   0.00   52.7    38    3.5    20     6.0   99999.0    0.00 
 125    0:50   0.00   49.3    44    3.2    60     4.6   99999.0    0.00 
 125    1:00   0.00   50.4    42    2.3   272     4.6   99999.0    0.00 
 125    1:10   0.00   49.3    44    1.7   138     6.3   99999.0    0.00 
 125    1:20   0.00   47.5    46    1.0   315     3.1   99999.0    0.00 
 125    1:30   0.00   47.8    46    0.0   261     1.3   99999.0    0.00 
 125    1:40   0.00   47.4    47    0.0   346     0.0   99999.0    0.00 
 125    1:50   0.00   45.8    52    0.0   109     0.0   99999.0    0.00 
 125    2:00   0.00   44.8    55    0.0    31     0.0   99999.0    0.00 
 125    2:10   0.00   44.2    58    0.0   159     0.0   99999.0    0.00 
 125    2:20   0.00   45.1    58    0.0   232     0.0   99999.0    0.00 
 125    2:30   0.00   47.0    52    0.0   224     0.0   99999.0    0.00 
 125    2:40   0.00   47.2    50    0.0   262     0.0   99999.0    0.00 
 125    2:50   0.00   46.8    48    0.0   323     0.0   99999.0    0.00 
 125    3:00   0.00   44.2    50    0.0    98     0.0   99999.0    0.00 
 125    3:10   0.00   41.5    54    0.0    36     0.0   99999.0    0.00 
 125    3:20   0.00   40.9    57    0.0    40     0.0   99999.0    0.00 
 125    3:30   0.00   41.1    57    0.0   287     0.0   99999.0    0.00 
 125    3:40   0.00   42.5    55    0.0   321     0.0   99999.0    0.00 
 125    3:50   0.00   41.9    56    0.0   337     0.0   99999.0    0.00 
 125    4:00   0.00   42.1    55    0.0   319     0.0   99999.0    0.00 
 125    4:10   0.00   42.5    55    0.0   355     0.0   99999.0    0.00 
 125    4:20   0.00   41.1    57    0.0    39     0.0   99999.0    0.00 
 125    4:30   0.00   40.5    58    0.6   277     7.1   99999.0    0.00 
 125    4:40   0.00   39.7    58    0.0   333     2.4   99999.0    0.00 
 125    4:50   0.00   40.3    58    0.0   296     0.0   99999.0    0.00 
 125    5:00   0.00   40.9    56    0.0   307     0.0   99999.0    0.00 
 125    5:10   0.00   41.2    56    2.0   303     4.9   99999.0    0.00 
 125    5:20   0.01   41.3    56    1.6   336     3.1   99999.0    0.00 
 125    5:30   0.01   39.8    57    1.0    78     3.8   99999.0    0.00 
 125    5:40   0.04   37.9    61    0.1   133     1.3   99999.0    0.00 
 125    5:50   0.07   39.2    60    0.2   271     2.1   99999.0    0.00 
 125    6:00   0.10   41.2    56    0.1   314     1.7   99999.0    0.00 
 125    6:10   0.12   43.1    53    0.4    10     3.5   99999.0    0.00 
 125    6:20   0.15   44.9    52    1.1    64     4.9   99999.0    0.00 
 125    6:30   0.18   47.1    49    0.3    52     2.1   99999.0    0.00 
 125    6:40   0.21   49.4    43    0.3    68     2.1   99999.0    0.00 
 125    6:50   0.25   50.9    40    0.7    55     2.4   99999.0    0.00 
 125    7:00   0.28   52.2    40    0.0    60     0.0   99999.0    0.00 
 125    7:10   0.31   52.8    43    0.0   201     0.0   99999.0    0.00 
 125    7:20   0.35   54.3    39    0.0   213     0.0   99999.0    0.00 
 125    7:30   0.38   55.7    37    0.3   217     2.1   99999.0    0.00 
 125    7:40   0.42   56.3    36    1.5   200     2.4   99999.0    0.00 
 125    7:50   0.45   57.5    33    3.0   180     6.7   99999.0    0.00 
 125    8:00   0.48   59.3    30    3.6   142     7.1   99999.0    0.00 
 125    8:10   0.51   62.1    24    9.0   111    15.3   99999.0    0.00 
 125    8:20   0.54   63.1    23   10.4   108    15.3   99999.0    0.00 
 125    8:30   0.57   63.4    23   10.6   106    16.7   99999.0    0.00 
 125    8:40   0.60   64.0    22    9.4   106    14.9   99999.0    0.00 
 125    8:50   0.63   64.4    22   11.1   101    16.4   99999.0    0.00 
 125    9:00   0.66   64.8    22   10.4    90    14.6   99999.0    0.00 
 125    9:10   0.69   65.5    21    9.8   108    15.6   99999.0    0.00 
 125    9:20   0.72   66.2    21    9.9    93    14.6   99999.0    0.00 
 125    9:30   0.74   66.9    20    9.6   103    14.2   99999.0    0.00 
 125    9:40   0.77   67.0    20    9.3    82    13.9   99999.0    0.00 
 125    9:50   0.79   67.7    19    9.1    98    14.9   99999.0    0.00 
 125   10:00   0.81   68.5    19    8.4    91    15.3   99999.0    0.00 
 125   10:10   0.83   69.4    18    8.9   110    14.2   99999.0    0.00 
 125   10:20   0.85   69.6    18    8.5    92    14.6   99999.0    0.00 
 125   10:30   0.87   70.5    16    9.2   105    15.6   99999.0    0.00 
 125   10:40   0.88   71.2    16    8.5   109    16.7   99999.0    0.00 
 125   10:50   0.90   71.0    16    8.7   124    16.0   99999.0    0.00 
 125   11:00   0.91   72.2    15    7.7   106    14.2   99999.0    0.00 
 125   11:10   0.93   72.1    15    7.9   103    14.6   99999.0    0.00 
 125   11:20   0.94   73.2    15    9.6    99    14.9   99999.0    0.00 
 125   11:30   0.94   74.3    14    9.4   109    17.1   99999.0    0.00 
 125   11:40   0.95   74.0    14   10.3    89    18.9   99999.0    0.00 
 125   11:50   0.96   74.3    14   10.4    86    18.1   99999.0    0.00 
 125   12:00   0.96   74.6    14    8.0    83    15.3   99999.0    0.00 
 125   12:10   0.96   75.8    13    9.6    98    16.0   99999.0    0.00 
 125   12:20   0.96   76.1    13    7.9    99    12.8   99999.0    0.00 
 125   12:30   0.96   76.4    13    9.5   111    17.8   99999.0    0.00 
 125   12:40   0.96   77.0    13    7.3   116    12.8   99999.0    0.00 
 125   12:50   0.95   77.3    12    8.7    98    16.4   99999.0    0.00 
 125   13:00   0.95   76.7    13    9.2    81    14.6   99999.0    0.00 
 125   13:10   0.94   77.3    13    8.4    84    16.0   99999.0    0.00 
 125   13:20   0.93   77.6    13    9.6    87    17.4   99999.0    0.00 
 125   13:30   0.92   78.4    13    8.0    82    16.4   99999.0    0.00 
 125   13:40   0.91   78.9    13    8.9   115    18.5   99999.0    0.00 
 125   13:50   0.89   78.6    12    6.1    91    13.1   99999.0    0.00 
 125   14:00   0.87   79.5    12    7.8   104    18.1   99999.0    0.00 
 125   14:10   0.86   79.6    12    5.6    86    15.6   99999.0    0.00 
 125   14:20   0.84   79.9    12    6.6    92    13.5   99999.0    0.00 
 125   14:30   0.82   80.3    12    7.6    98    17.4   99999.0    0.00 
 125   14:40   0.79   80.1    12    4.6    80    10.6   99999.0    0.00 

Return to Lazy 5 Park graphs page.


Western Regional Climate Center,wrcc@dri.edu